sensor_id;sensor_type;location;lat;lon;timestamp;temperature;humidity
54461;DHT22;40371;49.414;11.010;2023-03-14T00:00:12;9.60;99.90
54461;DHT22;40371;49.414;11.010;2023-03-14T00:02:38;9.60;99.90
54461;DHT22;40371;49.414;11.010;2023-03-14T00:05:05;9.60;99.90
54461;DHT22;40371;49.414;11.010;2023-03-14T00:07:35;9.60;99.90
54461;DHT22;40371;49.414;11.010;2023-03-14T00:10:08;9.70;99.90
54461;DHT22;40371;49.414;11.010;2023-03-14T00:12:34;9.70;99.90
54461;DHT22;40371;49.414;11.010;2023-03-14T00:15:00;9.70;99.90
54461;DHT22;40371;49.414;11.010;2023-03-14T00:17:29;9.70;99.90
54461;DHT22;40371;49.414;11.010;2023-03-14T00:19:54;9.70;99.90
54461;DHT22;40371;49.414;11.010;2023-03-14T00:22:21;9.70;99.90
54461;DHT22;40371;49.414;11.010;2023-03-14T00:24:46;9.80;99.90
54461;DHT22;40371;49.414;11.010;2023-03-14T00:27:12;9.70;99.90
54461;DHT22;40371;49.414;11.010;2023-03-14T00:29:38;9.70;99.90
54461;DHT22;40371;49.414;11.010;2023-03-14T00:32:04;9.80;99.90
54461;DHT22;40371;49.414;11.010;2023-03-14T00:34:30;9.70;99.90
54461;DHT22;40371;49.414;11.010;2023-03-14T00:36:56;9.80;99.90
54461;DHT22;40371;49.414;11.010;2023-03-14T00:39:22;9.80;99.90
54461;DHT22;40371;49.414;11.010;2023-03-14T00:41:47;9.70;99.90
54461;DHT22;40371;49.414;11.010;2023-03-14T00:44:18;9.80;99.90
54461;DHT22;40371;49.414;11.010;2023-03-14T00:46:43;9.80;99.90
54461;DHT22;40371;49.414;11.010;2023-03-14T00:49:09;9.80;99.90
54461;DHT22;40371;49.414;11.010;2023-03-14T00:51:35;9.90;99.90
54461;DHT22;40371;49.414;11.010;2023-03-14T00:54:00;9.90;99.90
54461;DHT22;40371;49.414;11.010;2023-03-14T00:56:26;9.80;99.90
54461;DHT22;40371;49.414;11.010;2023-03-14T00:58:55;9.90;99.90
54461;DHT22;40371;49.414;11.010;2023-03-14T01:01:21;9.90;99.90
54461;DHT22;40371;49.414;11.010;2023-03-14T01:03:47;9.80;99.90
54461;DHT22;40371;49.414;11.010;2023-03-14T01:06:18;9.80;99.90
54461;DHT22;40371;49.414;11.010;2023-03-14T01:08:44;9.80;99.90
54461;DHT22;40371;49.414;11.010;2023-03-14T01:11:13;9.80;99.90
54461;DHT22;40371;49.414;11.010;2023-03-14T01:13:39;9.80;99.90
54461;DHT22;40371;49.414;11.010;2023-03-14T01:16:07;9.90;99.90
54461;DHT22;40371;49.414;11.010;2023-03-14T01:18:37;9.80;99.90
54461;DHT22;40371;49.414;11.010;2023-03-14T01:21:08;9.90;99.90
54461;DHT22;40371;49.414;11.010;2023-03-14T01:23:34;9.80;99.90
54461;DHT22;40371;49.414;11.010;2023-03-14T01:26:00;9.80;99.90
54461;DHT22;40371;49.414;11.010;2023-03-14T01:28:25;9.80;99.90
54461;DHT22;40371;49.414;11.010;2023-03-14T01:30:51;9.70;99.90
54461;DHT22;40371;49.414;11.010;2023-03-14T01:33:17;9.80;99.90
54461;DHT22;40371;49.414;11.010;2023-03-14T01:35:44;9.80;99.90
54461;DHT22;40371;49.414;11.010;2023-03-14T01:38:09;9.80;99.90
54461;DHT22;40371;49.414;11.010;2023-03-14T01:40:42;9.80;99.90
54461;DHT22;40371;49.414;11.010;2023-03-14T01:43:17;9.80;99.90
54461;DHT22;40371;49.414;11.010;2023-03-14T01:49:07;9.80;99.90
54461;DHT22;40371;49.414;11.010;2023-03-14T01:54:19;9.80;99.90
54461;DHT22;40371;49.414;11.010;2023-03-14T01:56:52;9.80;99.90
54461;DHT22;40371;49.414;11.010;2023-03-14T01:59:18;9.80;99.90
54461;DHT22;40371;49.414;11.010;2023-03-14T02:01:47;9.80;99.90
54461;DHT22;40371;49.414;11.010;2023-03-14T02:04:16;9.70;99.90
54461;DHT22;40371;49.414;11.010;2023-03-14T02:06:51;9.70;99.90
54461;DHT22;40371;49.414;11.010;2023-03-14T02:09:20;9.80;99.90
54461;DHT22;40371;49.414;11.010;2023-03-14T02:11:46;9.70;99.90
54461;DHT22;40371;49.414;11.010;2023-03-14T02:14:30;9.80;99.90
54461;DHT22;40371;49.414;11.010;2023-03-14T02:17:16;9.80;99.90
54461;DHT22;40371;49.414;11.010;2023-03-14T02:20:34;9.80;99.90
54461;DHT22;40371;49.414;11.010;2023-03-14T02:23:03;9.80;99.90
54461;DHT22;40371;49.414;11.010;2023-03-14T02:25:47;9.70;99.90
54461;DHT22;40371;49.414;11.010;2023-03-14T02:28:14;9.80;99.90
54461;DHT22;40371;49.414;11.010;2023-03-14T02:30:41;9.80;99.90
54461;DHT22;40371;49.414;11.010;2023-03-14T02:33:16;9.80;99.90
54461;DHT22;40371;49.414;11.010;2023-03-14T02:35:59;9.90;99.90
54461;DHT22;40371;49.414;11.010;2023-03-14T02:38:39;9.80;99.90
54461;DHT22;40371;49.414;11.010;2023-03-14T02:41:06;9.90;99.90
54461;DHT22;40371;49.414;11.010;2023-03-14T02:43:37;9.80;99.90
54461;DHT22;40371;49.414;11.010;2023-03-14T02:46:12;9.80;99.90
54461;DHT22;40371;49.414;11.010;2023-03-14T02:48:54;9.80;99.90
54461;DHT22;40371;49.414;11.010;2023-03-14T02:51:22;9.80;99.90
54461;DHT22;40371;49.414;11.010;2023-03-14T02:53:49;9.80;99.90
54461;DHT22;40371;49.414;11.010;2023-03-14T02:56:15;9.70;99.90
54461;DHT22;40371;49.414;11.010;2023-03-14T02:58:40;9.70;99.90
54461;DHT22;40371;49.414;11.010;2023-03-14T03:01:18;9.60;99.90
54461;DHT22;40371;49.414;11.010;2023-03-14T03:03:43;9.70;99.90
54461;DHT22;40371;49.414;11.010;2023-03-14T03:06:09;9.60;99.90
54461;DHT22;40371;49.414;11.010;2023-03-14T03:08:35;9.60;99.90
54461;DHT22;40371;49.414;11.010;2023-03-14T03:11:01;9.60;99.90
54461;DHT22;40371;49.414;11.010;2023-03-14T03:13:29;9.60;99.90
54461;DHT22;40371;49.414;11.010;2023-03-14T03:15:56;9.60;99.90
54461;DHT22;40371;49.414;11.010;2023-03-14T03:18:22;9.60;99.90
54461;DHT22;40371;49.414;11.010;2023-03-14T03:20:47;9.50;99.90
54461;DHT22;40371;49.414;11.010;2023-03-14T03:23:13;9.60;99.90
54461;DHT22;40371;49.414;11.010;2023-03-14T03:25:39;9.50;99.90
54461;DHT22;40371;49.414;11.010;2023-03-14T03:28:05;9.60;99.90
54461;DHT22;40371;49.414;11.010;2023-03-14T03:30:37;9.50;99.90
54461;DHT22;40371;49.414;11.010;2023-03-14T03:33:03;9.50;99.90
54461;DHT22;40371;49.414;11.010;2023-03-14T03:35:29;9.50;99.90
54461;DHT22;40371;49.414;11.010;2023-03-14T03:37:55;9.50;99.90
54461;DHT22;40371;49.414;11.010;2023-03-14T03:40:21;9.50;99.90
54461;DHT22;40371;49.414;11.010;2023-03-14T03:42:47;9.40;99.90
54461;DHT22;40371;49.414;11.010;2023-03-14T03:45:13;9.40;99.90
54461;DHT22;40371;49.414;11.010;2023-03-14T03:47:47;9.40;99.90
54461;DHT22;40371;49.414;11.010;2023-03-14T03:50:13;9.40;99.90
54461;DHT22;40371;49.414;11.010;2023-03-14T03:52:39;9.40;99.90
54461;DHT22;40371;49.414;11.010;2023-03-14T03:55:05;9.40;99.90
54461;DHT22;40371;49.414;11.010;2023-03-14T03:57:31;9.40;99.90
54461;DHT22;40371;49.414;11.010;2023-03-14T03:59:56;9.40;99.90
54461;DHT22;40371;49.414;11.010;2023-03-14T04:02:22;9.30;99.90
54461;DHT22;40371;49.414;11.010;2023-03-14T04:04:49;9.40;99.90
54461;DHT22;40371;49.414;11.010;2023-03-14T04:07:15;9.40;99.90
54461;DHT22;40371;49.414;11.010;2023-03-14T04:09:41;9.30;99.90
54461;DHT22;40371;49.414;11.010;2023-03-14T04:12:33;9.40;99.90
54461;DHT22;40371;49.414;11.010;2023-03-14T04:15:05;9.40;99.90
54461;DHT22;40371;49.414;11.010;2023-03-14T04:17:31;9.40;99.90
54461;DHT22;40371;49.414;11.010;2023-03-14T04:19:56;9.40;99.90
54461;DHT22;40371;49.414;11.010;2023-03-14T04:22:30;9.30;99.90
54461;DHT22;40371;49.414;11.010;2023-03-14T04:24:56;9.30;99.90
54461;DHT22;40371;49.414;11.010;2023-03-14T04:27:21;9.30;99.90
54461;DHT22;40371;49.414;11.010;2023-03-14T04:29:47;9.30;99.90
54461;DHT22;40371;49.414;11.010;2023-03-14T04:32:16;9.30;99.90
54461;DHT22;40371;49.414;11.010;2023-03-14T04:34:42;9.30;99.90
54461;DHT22;40371;49.414;11.010;2023-03-14T04:37:08;9.20;99.90
54461;DHT22;40371;49.414;11.010;2023-03-14T04:39:38;9.20;99.90
54461;DHT22;40371;49.414;11.010;2023-03-14T04:42:14;9.20;99.90
54461;DHT22;40371;49.414;11.010;2023-03-14T04:44:40;9.10;99.90
54461;DHT22;40371;49.414;11.010;2023-03-14T04:47:06;9.10;99.90
54461;DHT22;40371;49.414;11.010;2023-03-14T04:52:02;9.10;99.90
54461;DHT22;40371;49.414;11.010;2023-03-14T04:54:30;9.10;99.90
54461;DHT22;40371;49.414;11.010;2023-03-14T04:56:58;9.10;99.90
54461;DHT22;40371;49.414;11.010;2023-03-14T04:59:26;9.10;99.90
54461;DHT22;40371;49.414;11.010;2023-03-14T05:01:56;9.10;99.90
54461;DHT22;40371;49.414;11.010;2023-03-14T05:04:44;9.10;99.90
54461;DHT22;40371;49.414;11.010;2023-03-14T05:07:22;9.10;99.90
54461;DHT22;40371;49.414;11.010;2023-03-14T05:10:03;9.10;99.90
54461;DHT22;40371;49.414;11.010;2023-03-14T05:12:44;9.00;99.90
54461;DHT22;40371;49.414;11.010;2023-03-14T05:15:28;9.10;99.90
54461;DHT22;40371;49.414;11.010;2023-03-14T05:18:19;9.10;99.90
54461;DHT22;40371;49.414;11.010;2023-03-14T05:21:08;9.00;99.90
54461;DHT22;40371;49.414;11.010;2023-03-14T05:23:52;8.90;99.90
54461;DHT22;40371;49.414;11.010;2023-03-14T05:26:36;9.00;99.90
54461;DHT22;40371;49.414;11.010;2023-03-14T05:29:29;9.00;99.90
54461;DHT22;40371;49.414;11.010;2023-03-14T05:32:16;9.00;99.90
54461;DHT22;40371;49.414;11.010;2023-03-14T05:35:05;9.00;99.90
54461;DHT22;40371;49.414;11.010;2023-03-14T05:37:38;9.00;99.90
54461;DHT22;40371;49.414;11.010;2023-03-14T05:40:19;9.00;99.90
54461;DHT22;40371;49.414;11.010;2023-03-14T05:43:10;9.00;99.90
54461;DHT22;40371;49.414;11.010;2023-03-14T05:45:48;9.00;99.90
54461;DHT22;40371;49.414;11.010;2023-03-14T05:48:32;9.00;99.90
54461;DHT22;40371;49.414;11.010;2023-03-14T05:51:27;9.00;99.90
54461;DHT22;40371;49.414;11.010;2023-03-14T05:54:21;9.00;99.90
54461;DHT22;40371;49.414;11.010;2023-03-14T05:56:47;9.00;99.90
54461;DHT22;40371;49.414;11.010;2023-03-14T05:59:33;9.00;99.90
54461;DHT22;40371;49.414;11.010;2023-03-14T06:02:12;9.00;99.90
54461;DHT22;40371;49.414;11.010;2023-03-14T06:04:49;9.00;99.90
54461;DHT22;40371;49.414;11.010;2023-03-14T06:07:15;8.90;99.90
54461;DHT22;40371;49.414;11.010;2023-03-14T06:09:41;8.90;99.90
54461;DHT22;40371;49.414;11.010;2023-03-14T06:12:07;8.90;99.90
54461;DHT22;40371;49.414;11.010;2023-03-14T06:14:39;8.90;99.90
54461;DHT22;40371;49.414;11.010;2023-03-14T06:17:04;8.90;99.90
54461;DHT22;40371;49.414;11.010;2023-03-14T06:19:37;8.90;99.90
54461;DHT22;40371;49.414;11.010;2023-03-14T06:22:02;8.90;99.90
54461;DHT22;40371;49.414;11.010;2023-03-14T06:24:30;8.90;99.90
54461;DHT22;40371;49.414;11.010;2023-03-14T06:26:55;9.00;99.90
54461;DHT22;40371;49.414;11.010;2023-03-14T06:29:21;8.90;99.90
54461;DHT22;40371;49.414;11.010;2023-03-14T06:31:46;8.90;99.90
54461;DHT22;40371;49.414;11.010;2023-03-14T06:34:14;8.90;99.90
54461;DHT22;40371;49.414;11.010;2023-03-14T06:36:40;9.00;99.90
54461;DHT22;40371;49.414;11.010;2023-03-14T06:39:06;9.00;99.90
54461;DHT22;40371;49.414;11.010;2023-03-14T06:41:34;9.00;99.90
54461;DHT22;40371;49.414;11.010;2023-03-14T06:44:00;9.00;99.90
54461;DHT22;40371;49.414;11.010;2023-03-14T06:46:26;9.10;99.90
54461;DHT22;40371;49.414;11.010;2023-03-14T06:48:52;9.20;99.90
54461;DHT22;40371;49.414;11.010;2023-03-14T06:51:19;9.20;99.90
54461;DHT22;40371;49.414;11.010;2023-03-14T06:53:45;9.30;99.90
54461;DHT22;40371;49.414;11.010;2023-03-14T06:56:13;9.30;99.90
54461;DHT22;40371;49.414;11.010;2023-03-14T06:58:39;9.40;99.90
54461;DHT22;40371;49.414;11.010;2023-03-14T07:01:25;9.40;99.90
54461;DHT22;40371;49.414;11.010;2023-03-14T07:03:52;9.50;99.90
54461;DHT22;40371;49.414;11.010;2023-03-14T07:06:17;9.60;99.90
54461;DHT22;40371;49.414;11.010;2023-03-14T07:08:43;9.60;99.90
54461;DHT22;40371;49.414;11.010;2023-03-14T07:11:09;9.80;99.90
54461;DHT22;40371;49.414;11.010;2023-03-14T07:13:38;9.80;99.90
54461;DHT22;40371;49.414;11.010;2023-03-14T07:16:06;9.70;99.90
54461;DHT22;40371;49.414;11.010;2023-03-14T07:18:32;9.70;99.90
54461;DHT22;40371;49.414;11.010;2023-03-14T07:20:58;9.70;99.90
54461;DHT22;40371;49.414;11.010;2023-03-14T07:23:24;9.70;99.90
54461;DHT22;40371;49.414;11.010;2023-03-14T07:25:52;9.80;99.90
54461;DHT22;40371;49.414;11.010;2023-03-14T07:28:20;9.90;99.90
54461;DHT22;40371;49.414;11.010;2023-03-14T07:30:47;10.00;99.90
54461;DHT22;40371;49.414;11.010;2023-03-14T07:33:19;9.90;99.90
54461;DHT22;40371;49.414;11.010;2023-03-14T07:35:48;9.90;99.90
54461;DHT22;40371;49.414;11.010;2023-03-14T07:38:15;9.90;99.90
54461;DHT22;40371;49.414;11.010;2023-03-14T07:41:03;9.90;99.90
54461;DHT22;40371;49.414;11.010;2023-03-14T07:43:32;9.90;99.90
54461;DHT22;40371;49.414;11.010;2023-03-14T07:45:59;10.00;99.90
54461;DHT22;40371;49.414;11.010;2023-03-14T07:48:25;10.00;99.90
54461;DHT22;40371;49.414;11.010;2023-03-14T07:50:53;10.00;99.90
54461;DHT22;40371;49.414;11.010;2023-03-14T07:53:19;10.20;99.90
54461;DHT22;40371;49.414;11.010;2023-03-14T07:55:45;10.20;99.90
54461;DHT22;40371;49.414;11.010;2023-03-14T07:58:11;10.20;99.90
54461;DHT22;40371;49.414;11.010;2023-03-14T08:00:36;10.20;99.90
54461;DHT22;40371;49.414;11.010;2023-03-14T08:03:02;10.50;99.90
54461;DHT22;40371;49.414;11.010;2023-03-14T08:05:28;11.00;99.90
54461;DHT22;40371;49.414;11.010;2023-03-14T08:07:53;11.30;99.90
54461;DHT22;40371;49.414;11.010;2023-03-14T08:10:19;10.90;99.90
54461;DHT22;40371;49.414;11.010;2023-03-14T08:12:54;11.60;99.90
54461;DHT22;40371;49.414;11.010;2023-03-14T08:15:20;12.30;99.90
54461;DHT22;40371;49.414;11.010;2023-03-14T08:17:46;12.30;99.90
54461;DHT22;40371;49.414;11.010;2023-03-14T08:20:17;12.70;99.90
54461;DHT22;40371;49.414;11.010;2023-03-14T08:22:42;13.70;99.90
54461;DHT22;40371;49.414;11.010;2023-03-14T08:25:08;14.10;99.90
54461;DHT22;40371;49.414;11.010;2023-03-14T08:27:34;14.20;99.90
54461;DHT22;40371;49.414;11.010;2023-03-14T08:30:00;14.20;99.90
54461;DHT22;40371;49.414;11.010;2023-03-14T08:32:25;13.70;99.90
54461;DHT22;40371;49.414;11.010;2023-03-14T08:34:51;13.60;99.90
54461;DHT22;40371;49.414;11.010;2023-03-14T08:37:17;13.50;99.90
54461;DHT22;40371;49.414;11.010;2023-03-14T08:39:44;13.10;99.90
54461;DHT22;40371;49.414;11.010;2023-03-14T08:42:09;13.00;99.90
54461;DHT22;40371;49.414;11.010;2023-03-14T08:44:35;13.30;99.90
54461;DHT22;40371;49.414;11.010;2023-03-14T08:47:00;13.80;99.90
54461;DHT22;40371;49.414;11.010;2023-03-14T08:49:26;13.40;99.90
54461;DHT22;40371;49.414;11.010;2023-03-14T08:51:52;13.10;99.90
54461;DHT22;40371;49.414;11.010;2023-03-14T08:54:17;13.20;99.90
54461;DHT22;40371;49.414;11.010;2023-03-14T08:56:44;12.70;99.90
54461;DHT22;40371;49.414;11.010;2023-03-14T08:59:09;13.00;99.90
54461;DHT22;40371;49.414;11.010;2023-03-14T09:01:36;12.80;99.90
54461;DHT22;40371;49.414;11.010;2023-03-14T09:04:02;12.70;99.90
54461;DHT22;40371;49.414;11.010;2023-03-14T09:06:27;13.20;99.90
54461;DHT22;40371;49.414;11.010;2023-03-14T09:08:53;12.80;99.90
54461;DHT22;40371;49.414;11.010;2023-03-14T09:11:19;13.10;99.90
54461;DHT22;40371;49.414;11.010;2023-03-14T09:13:44;13.20;99.90
54461;DHT22;40371;49.414;11.010;2023-03-14T09:16:10;13.20;99.90
54461;DHT22;40371;49.414;11.010;2023-03-14T09:18:36;13.60;99.90
54461;DHT22;40371;49.414;11.010;2023-03-14T09:21:02;13.40;99.90
54461;DHT22;40371;49.414;11.010;2023-03-14T09:23:27;13.80;99.90
54461;DHT22;40371;49.414;11.010;2023-03-14T09:25:57;13.60;99.90
54461;DHT22;40371;49.414;11.010;2023-03-14T09:28:24;13.70;99.90
54461;DHT22;40371;49.414;11.010;2023-03-14T09:30:49;14.70;99.90
54461;DHT22;40371;49.414;11.010;2023-03-14T09:33:16;14.30;99.90
54461;DHT22;40371;49.414;11.010;2023-03-14T09:35:42;15.10;99.90
54461;DHT22;40371;49.414;11.010;2023-03-14T09:38:08;15.50;99.90
54461;DHT22;40371;49.414;11.010;2023-03-14T09:40:37;14.80;99.90
54461;DHT22;40371;49.414;11.010;2023-03-14T09:43:04;14.50;99.90
54461;DHT22;40371;49.414;11.010;2023-03-14T09:45:34;15.00;99.90
54461;DHT22;40371;49.414;11.010;2023-03-14T09:48:02;14.20;99.90
54461;DHT22;40371;49.414;11.010;2023-03-14T09:50:36;14.60;99.90
54461;DHT22;40371;49.414;11.010;2023-03-14T09:53:06;13.90;99.90
54461;DHT22;40371;49.414;11.010;2023-03-14T09:55:32;13.40;99.90
54461;DHT22;40371;49.414;11.010;2023-03-14T09:58:02;13.40;99.90
54461;DHT22;40371;49.414;11.010;2023-03-14T10:00:30;13.20;99.90
54461;DHT22;40371;49.414;11.010;2023-03-14T10:03:05;13.00;99.90
54461;DHT22;40371;49.414;11.010;2023-03-14T10:05:32;13.30;99.90
54461;DHT22;40371;49.414;11.010;2023-03-14T10:07:58;13.40;99.90
54461;DHT22;40371;49.414;11.010;2023-03-14T10:10:25;13.00;99.90
54461;DHT22;40371;49.414;11.010;2023-03-14T10:13:13;12.60;99.90
54461;DHT22;40371;49.414;11.010;2023-03-14T10:15:39;12.60;99.90
54461;DHT22;40371;49.414;11.010;2023-03-14T10:18:11;12.70;99.90
54461;DHT22;40371;49.414;11.010;2023-03-14T10:20:42;12.70;99.90
54461;DHT22;40371;49.414;11.010;2023-03-14T10:25:40;12.80;99.90
54461;DHT22;40371;49.414;11.010;2023-03-14T10:28:23;13.00;99.90
54461;DHT22;40371;49.414;11.010;2023-03-14T10:30:50;13.20;99.90
54461;DHT22;40371;49.414;11.010;2023-03-14T10:33:20;13.20;99.90
54461;DHT22;40371;49.414;11.010;2023-03-14T10:35:54;13.20;99.90
54461;DHT22;40371;49.414;11.010;2023-03-14T10:38:23;13.10;99.90
54461;DHT22;40371;49.414;11.010;2023-03-14T10:40:51;13.20;99.90
54461;DHT22;40371;49.414;11.010;2023-03-14T10:43:32;13.20;99.90
54461;DHT22;40371;49.414;11.010;2023-03-14T10:46:09;13.20;99.90
54461;DHT22;40371;49.414;11.010;2023-03-14T10:48:56;13.10;99.90
54461;DHT22;40371;49.414;11.010;2023-03-14T10:51:27;12.90;99.90
54461;DHT22;40371;49.414;11.010;2023-03-14T10:56:25;12.90;99.90
54461;DHT22;40371;49.414;11.010;2023-03-14T10:58:53;12.80;99.90
54461;DHT22;40371;49.414;11.010;2023-03-14T11:01:47;12.70;99.90
54461;DHT22;40371;49.414;11.010;2023-03-14T11:07:21;12.70;99.90
54461;DHT22;40371;49.414;11.010;2023-03-14T11:09:56;12.60;99.90
54461;DHT22;40371;49.414;11.010;2023-03-14T11:15:02;12.50;99.90
54461;DHT22;40371;49.414;11.010;2023-03-14T11:18:09;12.50;99.90
54461;DHT22;40371;49.414;11.010;2023-03-14T11:20:51;12.60;99.90
54461;DHT22;40371;49.414;11.010;2023-03-14T11:23:23;12.50;99.90
54461;DHT22;40371;49.414;11.010;2023-03-14T11:25:57;12.40;99.90
54461;DHT22;40371;49.414;11.010;2023-03-14T11:28:39;12.20;99.90
54461;DHT22;40371;49.414;11.010;2023-03-14T11:31:19;13.00;99.90
54461;DHT22;40371;49.414;11.010;2023-03-14T11:33:56;17.80;99.90
54461;DHT22;40371;49.414;11.010;2023-03-14T11:36:33;19.70;99.90
54461;DHT22;40371;49.414;11.010;2023-03-14T11:39:02;18.60;99.90
54461;DHT22;40371;49.414;11.010;2023-03-14T11:41:34;17.50;99.90
54461;DHT22;40371;49.414;11.010;2023-03-14T11:44:04;18.00;99.90
54461;DHT22;40371;49.414;11.010;2023-03-14T11:46:36;18.60;99.90
54461;DHT22;40371;49.414;11.010;2023-03-14T11:49:28;18.50;99.90
54461;DHT22;40371;49.414;11.010;2023-03-14T11:52:13;18.10;99.90
54461;DHT22;40371;49.414;11.010;2023-03-14T11:54:50;19.60;99.90
54461;DHT22;40371;49.414;11.010;2023-03-14T11:57:19;19.20;99.90
54461;DHT22;40371;49.414;11.010;2023-03-14T12:00:06;18.40;99.90
54461;DHT22;40371;49.414;11.010;2023-03-14T12:05:50;16.70;99.90
54461;DHT22;40371;49.414;11.010;2023-03-14T12:11:13;15.50;99.90
54461;DHT22;40371;49.414;11.010;2023-03-14T12:13:41;16.20;99.90
54461;DHT22;40371;49.414;11.010;2023-03-14T12:18:53;15.00;99.90
54461;DHT22;40371;49.414;11.010;2023-03-14T12:21:19;16.00;99.90
54461;DHT22;40371;49.414;11.010;2023-03-14T12:23:51;15.40;99.90
54461;DHT22;40371;49.414;11.010;2023-03-14T12:41:52;14.90;99.90
54461;DHT22;40371;49.414;11.010;2023-03-14T12:49:54;14.40;99.90
54461;DHT22;40371;49.414;11.010;2023-03-14T12:52:36;14.20;99.90
54461;DHT22;40371;49.414;11.010;2023-03-14T12:57:45;13.90;99.90
54461;DHT22;40371;49.414;11.010;2023-03-14T13:00:20;13.40;99.90
54461;DHT22;40371;49.414;11.010;2023-03-14T13:02:47;13.00;99.90
54461;DHT22;40371;49.414;11.010;2023-03-14T13:05:19;12.80;99.90
54461;DHT22;40371;49.414;11.010;2023-03-14T13:10:24;12.20;99.90
54461;DHT22;40371;49.414;11.010;2023-03-14T13:13:03;12.10;99.90
54461;DHT22;40371;49.414;11.010;2023-03-14T13:15:43;12.00;99.90
54461;DHT22;40371;49.414;11.010;2023-03-14T13:18:16;11.90;99.90
54461;DHT22;40371;49.414;11.010;2023-03-14T13:20:52;12.00;99.90
54461;DHT22;40371;49.414;11.010;2023-03-14T13:23:32;12.00;99.90
54461;DHT22;40371;49.414;11.010;2023-03-14T13:26:00;11.80;99.90
54461;DHT22;40371;49.414;11.010;2023-03-14T13:28:27;11.60;99.90
54461;DHT22;40371;49.414;11.010;2023-03-14T13:30:59;11.50;99.90
54461;DHT22;40371;49.414;11.010;2023-03-14T13:33:25;11.40;99.90
54461;DHT22;40371;49.414;11.010;2023-03-14T13:38:32;11.10;99.90
54461;DHT22;40371;49.414;11.010;2023-03-14T13:41:03;11.10;99.90
54461;DHT22;40371;49.414;11.010;2023-03-14T13:43:40;11.00;99.90
54461;DHT22;40371;49.414;11.010;2023-03-14T13:46:15;11.00;99.90
54461;DHT22;40371;49.414;11.010;2023-03-14T13:48:47;10.90;99.90
54461;DHT22;40371;49.414;11.010;2023-03-14T13:51:19;10.80;99.90
54461;DHT22;40371;49.414;11.010;2023-03-14T13:53:51;10.50;99.90
54461;DHT22;40371;49.414;11.010;2023-03-14T13:56:19;11.00;99.90
54461;DHT22;40371;49.414;11.010;2023-03-14T13:58:45;10.60;99.90
54461;DHT22;40371;49.414;11.010;2023-03-14T14:01:17;10.60;99.90
54461;DHT22;40371;49.414;11.010;2023-03-14T14:03:45;10.60;99.90
54461;DHT22;40371;49.414;11.010;2023-03-14T14:06:38;10.70;99.90
54461;DHT22;40371;49.414;11.010;2023-03-14T14:09:27;10.80;99.90
54461;DHT22;40371;49.414;11.010;2023-03-14T14:11:54;10.70;99.90
54461;DHT22;40371;49.414;11.010;2023-03-14T14:14:37;10.70;99.90
54461;DHT22;40371;49.414;11.010;2023-03-14T14:17:08;10.60;99.90
54461;DHT22;40371;49.414;11.010;2023-03-14T14:19:36;10.50;99.90
54461;DHT22;40371;49.414;11.010;2023-03-14T14:22:02;10.60;99.90
54461;DHT22;40371;49.414;11.010;2023-03-14T14:24:30;10.50;99.90
54461;DHT22;40371;49.414;11.010;2023-03-14T14:27:08;10.40;99.90
54461;DHT22;40371;49.414;11.010;2023-03-14T14:29:35;10.40;99.90
54461;DHT22;40371;49.414;11.010;2023-03-14T14:34:44;10.30;99.90
54461;DHT22;40371;49.414;11.010;2023-03-14T14:37:23;10.00;99.90
54461;DHT22;40371;49.414;11.010;2023-03-14T14:39:52;9.90;99.90
54461;DHT22;40371;49.414;11.010;2023-03-14T14:42:21;9.90;99.90
54461;DHT22;40371;49.414;11.010;2023-03-14T14:44:49;9.70;99.90
54461;DHT22;40371;49.414;11.010;2023-03-14T14:47:20;9.60;99.90
54461;DHT22;40371;49.414;11.010;2023-03-14T14:49:51;9.40;99.90
54461;DHT22;40371;49.414;11.010;2023-03-14T14:52:20;9.20;99.90
54461;DHT22;40371;49.414;11.010;2023-03-14T14:54:54;9.00;99.90
54461;DHT22;40371;49.414;11.010;2023-03-14T15:00:04;8.80;99.90
54461;DHT22;40371;49.414;11.010;2023-03-14T15:05:08;8.60;99.90
54461;DHT22;40371;49.414;11.010;2023-03-14T15:07:36;8.40;99.90
54461;DHT22;40371;49.414;11.010;2023-03-14T15:10:02;8.50;99.90
54461;DHT22;40371;49.414;11.010;2023-03-14T15:12:28;8.50;99.90
54461;DHT22;40371;49.414;11.010;2023-03-14T15:14:54;8.20;99.90
54461;DHT22;40371;49.414;11.010;2023-03-14T15:17:23;8.10;99.90
54461;DHT22;40371;49.414;11.010;2023-03-14T15:19:49;8.10;99.90
54461;DHT22;40371;49.414;11.010;2023-03-14T15:22:15;8.20;99.90
54461;DHT22;40371;49.414;11.010;2023-03-14T15:24:41;8.10;99.90
54461;DHT22;40371;49.414;11.010;2023-03-14T15:27:13;8.00;99.90
54461;DHT22;40371;49.414;11.010;2023-03-14T15:29:39;8.20;99.90
54461;DHT22;40371;49.414;11.010;2023-03-14T15:32:05;8.10;99.90
54461;DHT22;40371;49.414;11.010;2023-03-14T15:34:32;8.10;99.90
54461;DHT22;40371;49.414;11.010;2023-03-14T15:36:57;8.20;99.90
54461;DHT22;40371;49.414;11.010;2023-03-14T15:39:23;8.20;99.90
54461;DHT22;40371;49.414;11.010;2023-03-14T15:41:49;8.30;99.90
54461;DHT22;40371;49.414;11.010;2023-03-14T15:44:14;8.30;99.90
54461;DHT22;40371;49.414;11.010;2023-03-14T15:46:40;8.30;99.90
54461;DHT22;40371;49.414;11.010;2023-03-14T15:49:05;8.40;99.90
54461;DHT22;40371;49.414;11.010;2023-03-14T15:51:31;8.40;99.90
54461;DHT22;40371;49.414;11.010;2023-03-14T15:53:57;8.40;99.90
54461;DHT22;40371;49.414;11.010;2023-03-14T15:56:23;8.50;99.90
54461;DHT22;40371;49.414;11.010;2023-03-14T15:58:50;8.60;99.90
54461;DHT22;40371;49.414;11.010;2023-03-14T16:01:16;8.50;99.90
54461;DHT22;40371;49.414;11.010;2023-03-14T16:03:45;8.60;99.90
54461;DHT22;40371;49.414;11.010;2023-03-14T16:06:12;8.60;99.90
54461;DHT22;40371;49.414;11.010;2023-03-14T16:08:38;8.60;99.90
54461;DHT22;40371;49.414;11.010;2023-03-14T16:11:03;8.60;99.90
54461;DHT22;40371;49.414;11.010;2023-03-14T16:13:30;8.50;99.90
54461;DHT22;40371;49.414;11.010;2023-03-14T16:15:57;8.50;99.90
54461;DHT22;40371;49.414;11.010;2023-03-14T16:18:23;8.60;99.90
54461;DHT22;40371;49.414;11.010;2023-03-14T16:20:56;8.60;99.90
54461;DHT22;40371;49.414;11.010;2023-03-14T16:23:22;8.50;99.90
54461;DHT22;40371;49.414;11.010;2023-03-14T16:25:48;8.50;99.90
54461;DHT22;40371;49.414;11.010;2023-03-14T16:28:14;8.50;99.90
54461;DHT22;40371;49.414;11.010;2023-03-14T16:30:40;8.50;99.90
54461;DHT22;40371;49.414;11.010;2023-03-14T16:33:05;8.50;99.90
54461;DHT22;40371;49.414;11.010;2023-03-14T16:35:35;8.40;99.90
54461;DHT22;40371;49.414;11.010;2023-03-14T16:38:01;8.40;99.90
54461;DHT22;40371;49.414;11.010;2023-03-14T16:40:27;8.40;99.90
54461;DHT22;40371;49.414;11.010;2023-03-14T16:42:52;8.30;99.90
54461;DHT22;40371;49.414;11.010;2023-03-14T16:45:19;8.30;99.90
54461;DHT22;40371;49.414;11.010;2023-03-14T16:47:44;8.30;99.90